createdAt,value
2019-03-29T00:00:10.083Z,18.299999
2019-03-29T00:00:22.678Z,17.9
2019-03-29T00:00:37.258Z,17.1
2019-03-29T00:00:49.889Z,17.200001
2019-03-29T00:01:02.512Z,16.799999
2019-03-29T00:01:15.101Z,16
2019-03-29T00:01:27.698Z,16.799999
2019-03-29T00:01:40.289Z,17.1
2019-03-29T00:01:53.885Z,17.5
2019-03-29T00:02:06.499Z,18.299999
2019-03-29T00:02:20.104Z,18.700001
2019-03-29T00:02:32.693Z,18.299999
2019-03-29T00:02:46.301Z,17.4
2019-03-29T00:02:59.897Z,18
2019-03-29T00:03:13.499Z,18.4
2019-03-29T00:03:26.075Z,18
2019-03-29T00:03:38.689Z,17.9
2019-03-29T00:03:51.301Z,18.799999
2019-03-29T00:04:03.945Z,18
2019-03-29T00:04:16.557Z,18.5
2019-03-29T00:04:30.157Z,18.9
2019-03-29T00:04:43.795Z,18.200001
2019-03-29T00:04:59.100Z,18.1
2019-03-29T00:05:11.693Z,18.700001
2019-03-29T00:05:25.290Z,18.6
2019-03-29T00:05:37.958Z,18.799999
2019-03-29T00:05:52.488Z,19.200001
2019-03-29T00:06:05.115Z,18.799999
2019-03-29T00:06:18.724Z,18.700001
2019-03-29T00:06:31.312Z,18.299999
2019-03-29T00:06:44.923Z,18
2019-03-29T00:06:57.500Z,18.4
2019-03-29T00:07:10.110Z,18.9
2019-03-29T00:07:23.690Z,18.6
2019-03-29T00:07:44.202Z,19.1
2019-03-29T00:07:57.825Z,18.200001
2019-03-29T00:08:12.413Z,17.799999
2019-03-29T00:08:26.046Z,19.1
2019-03-29T00:08:38.666Z,18.200001
2019-03-29T00:08:51.280Z,18.9
2019-03-29T00:09:04.905Z,19.200001
2019-03-29T00:09:17.512Z,17.799999
2019-03-29T00:09:30.114Z,17.299999
2019-03-29T00:09:42.694Z,17.200001
2019-03-29T00:09:55.294Z,16.799999
2019-03-29T00:10:07.887Z,17.799999
2019-03-29T00:10:20.911Z,18.700001
2019-03-29T00:10:33.064Z,18.5
2019-03-29T00:10:47.030Z,18.700001
2019-03-29T00:10:59.245Z,18.9
2019-03-29T00:11:12.939Z,18.4
2019-03-29T00:11:25.410Z,17.9
2019-03-29T00:11:38.218Z,18.299999
2019-03-29T00:11:50.586Z,18.299999
2019-03-29T00:12:03.232Z,18.299999
2019-03-29T00:12:16.436Z,18.299999
2019-03-29T00:12:29.012Z,18.5
2019-03-29T00:12:41.604Z,18.700001
2019-03-29T00:12:54.195Z,18
2019-03-29T00:13:06.783Z,18.299999
2019-03-29T00:13:21.398Z,19.200001
2019-03-29T00:13:33.987Z,19.1
2019-03-29T00:13:46.618Z,18.6
2019-03-29T00:13:59.215Z,19.200001
2019-03-29T00:14:11.834Z,19.200001
2019-03-29T00:14:26.404Z,19.6
2019-03-29T00:14:38.983Z,18.700001
2019-03-29T00:14:52.156Z,19.6
2019-03-29T00:15:04.764Z,19.299999
2019-03-29T00:15:17.350Z,19.299999
2019-03-29T00:15:29.944Z,19.299999
2019-03-29T00:15:42.561Z,19.299999
2019-03-29T00:15:55.167Z,20.1
2019-03-29T00:16:07.784Z,20.700001
2019-03-29T00:16:20.362Z,20
2019-03-29T00:16:32.957Z,19.1
2019-03-29T00:16:45.576Z,18.6
2019-03-29T00:16:58.197Z,19.9
2019-03-29T00:17:10.808Z,20.4
2019-03-29T00:17:24.401Z,19.700001
2019-03-29T00:17:36.998Z,19.700001
2019-03-29T00:17:50.612Z,20.799999
2019-03-29T00:18:04.198Z,20.700001
2019-03-29T00:18:17.771Z,20.5
2019-03-29T00:18:30.446Z,20.1
2019-03-29T00:18:44.988Z,20.6
2019-03-29T00:18:57.553Z,20.9
2019-03-29T00:19:11.190Z,21.4
2019-03-29T00:19:24.916Z,20.799999
2019-03-29T00:19:37.438Z,19.6
2019-03-29T00:19:51.848Z,18.9
2019-03-29T00:20:07.423Z,18.9
2019-03-29T00:20:21.045Z,20.700001
2019-03-29T00:20:34.636Z,21.200001
2019-03-29T00:20:48.231Z,20.4
2019-03-29T00:21:00.852Z,19.9
2019-03-29T00:21:13.437Z,20.6
2019-03-29T00:21:26.053Z,20.4
2019-03-29T00:21:39.180Z,20.9
2019-03-29T00:21:52.256Z,21
2019-03-29T00:22:05.897Z,21.5
2019-03-29T00:22:19.441Z,21.1
2019-03-29T00:22:33.035Z,21.1
2019-03-29T00:22:46.644Z,20.5
2019-03-29T00:23:00.290Z,21.299999
2019-03-29T00:23:13.899Z,21.9
2019-03-29T00:23:27.506Z,21.6
2019-03-29T00:23:40.108Z,20.6
2019-03-29T00:24:05.889Z,20.4
2019-03-29T00:24:12.233Z,21.4
2019-03-29T00:24:24.821Z,21.5
2019-03-29T00:24:37.414Z,20.9
2019-03-29T00:24:50.704Z,20.200001
2019-03-29T00:25:03.284Z,21.299999
2019-03-29T00:25:15.959Z,21.200001
2019-03-29T00:25:28.565Z,21
2019-03-29T00:25:42.170Z,21.799999
2019-03-29T00:25:54.767Z,22.200001
2019-03-29T00:26:08.359Z,20.799999
2019-03-29T00:26:20.940Z,20.6
2019-03-29T00:26:33.538Z,20.299999
2019-03-29T00:26:46.150Z,20.200001
2019-03-29T00:26:59.731Z,20.200001
2019-03-29T00:27:12.316Z,20.299999
2019-03-29T00:27:24.914Z,20.799999
2019-03-29T00:27:37.525Z,20.799999
2019-03-29T00:27:50.146Z,20.299999
2019-03-29T00:28:02.743Z,19.9
2019-03-29T00:28:16.942Z,20.6
2019-03-29T00:28:29.534Z,20.799999
2019-03-29T00:28:42.137Z,21.200001
2019-03-29T00:28:56.440Z,21.5
2019-03-29T00:29:09.021Z,21.200001
2019-03-29T00:29:23.586Z,20.9
2019-03-29T00:29:36.184Z,21
2019-03-29T00:29:48.803Z,20.799999
2019-03-29T00:30:02.375Z,21.200001
2019-03-29T00:30:15.954Z,21.700001
2019-03-29T00:30:29.546Z,21.700001
2019-03-29T00:30:43.126Z,21.6
2019-03-29T00:30:55.718Z,21.6
2019-03-29T00:31:09.343Z,21.9
2019-03-29T00:31:21.946Z,22.1
2019-03-29T00:31:35.554Z,21.4
2019-03-29T00:31:49.149Z,21.299999
2019-03-29T00:32:01.732Z,21.9
2019-03-29T00:32:14.305Z,21.700001
2019-03-29T00:32:27.887Z,21.700001
2019-03-29T00:32:41.477Z,21.6
2019-03-29T00:32:54.119Z,21.200001
2019-03-29T00:33:06.749Z,20.6
2019-03-29T00:33:19.441Z,21.200001
2019-03-29T00:33:32.043Z,20.9
2019-03-29T00:33:44.676Z,20.9
2019-03-29T00:33:58.277Z,20.9
2019-03-29T00:34:12.884Z,21.6
2019-03-29T00:34:25.504Z,22.299999
2019-03-29T00:34:38.084Z,22.200001
2019-03-29T00:34:50.680Z,22.1
2019-03-29T00:35:03.287Z,22.4
2019-03-29T00:35:15.886Z,22.1
2019-03-29T00:35:28.460Z,21.299999
2019-03-29T00:35:41.941Z,21.299999
2019-03-29T00:35:55.549Z,21.5
2019-03-29T00:36:09.147Z,21.1
2019-03-29T00:36:21.732Z,21.5
2019-03-29T00:36:34.337Z,22.200001
2019-03-29T00:36:46.984Z,21.700001
2019-03-29T00:36:59.553Z,22.1
2019-03-29T00:37:13.140Z,21.4
2019-03-29T00:37:25.739Z,21.799999
2019-03-29T00:37:38.309Z,22.299999
2019-03-29T00:37:58.839Z,23.4
2019-03-29T00:38:12.473Z,22.200001
2019-03-29T00:38:26.029Z,21.4
2019-03-29T00:38:38.608Z,21.700001
2019-03-29T00:38:52.199Z,22.200001
2019-03-29T00:39:04.784Z,20.799999
2019-03-29T00:39:19.361Z,21.4
2019-03-29T00:39:31.987Z,22.6
2019-03-29T00:39:44.667Z,22.6
2019-03-29T00:39:57.263Z,23
2019-03-29T00:40:10.828Z,23
2019-03-29T00:40:24.422Z,23.200001
2019-03-29T00:40:37.061Z,22.1
2019-03-29T00:40:50.664Z,21.6
2019-03-29T00:41:04.250Z,21.1
2019-03-29T00:41:16.873Z,20.700001
2019-03-29T00:41:30.464Z,21.4
2019-03-29T00:41:43.061Z,22
2019-03-29T00:41:55.654Z,21.799999
2019-03-29T00:42:08.251Z,22.299999
2019-03-29T00:42:21.453Z,22.700001
2019-03-29T00:42:34.041Z,21.9
2019-03-29T00:42:46.642Z,21.200001
2019-03-29T00:42:59.231Z,21.4
2019-03-29T00:43:11.839Z,21.200001
2019-03-29T00:43:25.468Z,21.299999
2019-03-29T00:43:39.076Z,21.299999
2019-03-29T00:43:51.716Z,21.4
2019-03-29T00:44:05.310Z,21
2019-03-29T00:44:17.911Z,20.5
2019-03-29T00:44:30.502Z,20.6
2019-03-29T00:44:43.112Z,21
2019-03-29T00:44:56.434Z,21.700001
2019-03-29T00:45:10.073Z,20.700001
2019-03-29T00:45:24.654Z,21.299999
2019-03-29T00:45:37.941Z,22.5
2019-03-29T00:45:50.540Z,21.799999
2019-03-29T00:46:03.145Z,21.200001
2019-03-29T00:46:15.726Z,21.5
2019-03-29T00:46:28.331Z,22
2019-03-29T00:46:41.941Z,21.5
2019-03-29T00:46:54.551Z,21.200001
2019-03-29T00:47:08.136Z,20.200001
2019-03-29T00:47:20.757Z,20.5
2019-03-29T00:47:35.318Z,22.1
2019-03-29T00:47:47.947Z,21.6
2019-03-29T00:48:01.533Z,21.5
2019-03-29T00:48:14.184Z,22.4
2019-03-29T00:48:27.785Z,22.4
2019-03-29T00:48:42.384Z,22.9
2019-03-29T00:48:56.022Z,23.200001
2019-03-29T00:49:08.642Z,21.799999
2019-03-29T00:49:21.950Z,21.5
2019-03-29T00:49:34.549Z,21.200001
2019-03-29T00:49:47.194Z,21.4
2019-03-29T00:49:59.773Z,21.799999
2019-03-29T00:50:14.189Z,21.700001
2019-03-29T00:50:26.794Z,20.5
2019-03-29T00:50:39.472Z,20
2019-03-29T00:50:53.090Z,19.9
2019-03-29T00:51:06.713Z,20.799999
2019-03-29T00:51:20.324Z,23
2019-03-29T00:51:32.971Z,24.1
2019-03-29T00:51:45.620Z,24
2019-03-29T00:51:59.242Z,23.1
2019-03-29T00:52:13.887Z,23.4
2019-03-29T00:52:27.498Z,23
2019-03-29T00:52:41.116Z,22.6
2019-03-29T00:52:53.713Z,22
2019-03-29T00:53:06.356Z,22.1
2019-03-29T00:53:19.936Z,22.1
2019-03-29T00:53:33.555Z,22.299999
2019-03-29T00:53:47.170Z,21.6
2019-03-29T00:53:59.781Z,21.6
2019-03-29T00:54:13.380Z,22.6
2019-03-29T00:54:25.979Z,21.799999
2019-03-29T00:54:39.565Z,21.200001
2019-03-29T00:54:52.180Z,21.4
2019-03-29T00:55:04.788Z,22.1
2019-03-29T00:55:17.404Z,21.9
2019-03-29T00:55:29.977Z,21.700001
2019-03-29T00:55:42.568Z,22.1
2019-03-29T00:55:55.167Z,22
2019-03-29T00:56:07.771Z,21.9
2019-03-29T00:56:20.396Z,21.299999
2019-03-29T00:56:32.997Z,21.5
2019-03-29T00:56:46.580Z,22.200001
2019-03-29T00:56:59.173Z,23.1
2019-03-29T00:57:12.773Z,21.9
2019-03-29T00:57:25.369Z,22.700001
2019-03-29T00:57:38.852Z,24.299999
2019-03-29T00:57:51.426Z,24.200001
2019-03-29T00:58:04.018Z,24
2019-03-29T00:58:17.572Z,24.299999
2019-03-29T00:58:30.149Z,23.6
2019-03-29T00:58:43.715Z,22.1
2019-03-29T00:58:57.339Z,22.6
2019-03-29T00:59:09.916Z,22.1
2019-03-29T00:59:22.526Z,22.200001
2019-03-29T00:59:35.787Z,22.299999
2019-03-29T00:59:48.387Z,21.9
2019-03-29T01:00:01.009Z,22.6
2019-03-29T01:00:14.588Z,22.799999
2019-03-29T01:00:27.192Z,23
2019-03-29T01:00:42.747Z,23.6
2019-03-29T01:00:55.353Z,24
2019-03-29T01:01:07.946Z,23.299999
2019-03-29T01:01:20.532Z,22.5
2019-03-29T01:01:33.133Z,23.200001
2019-03-29T01:01:45.730Z,24.299999
2019-03-29T01:01:59.304Z,23.9
2019-03-29T01:02:11.900Z,22.700001
2019-03-29T01:02:26.083Z,23.4
2019-03-29T01:02:38.662Z,24.4
2019-03-29T01:02:52.254Z,23.200001
2019-03-29T01:03:04.861Z,23
2019-03-29T01:03:18.467Z,23.5
2019-03-29T01:03:32.552Z,23.299999
2019-03-29T01:03:45.152Z,22.4
2019-03-29T01:03:57.742Z,21.799999
2019-03-29T01:04:10.337Z,22.299999
2019-03-29T01:04:22.920Z,23.5
2019-03-29T01:04:36.528Z,23.6
2019-03-29T01:04:49.138Z,22.799999
2019-03-29T01:05:02.803Z,22.5
2019-03-29T01:05:15.412Z,23.9
2019-03-29T01:05:28.703Z,25.4
2019-03-29T01:05:41.309Z,26.1
2019-03-29T01:05:53.893Z,24.299999
2019-03-29T01:06:06.502Z,23.9
2019-03-29T01:06:19.077Z,23.1
2019-03-29T01:06:31.686Z,22.6
2019-03-29T01:06:44.281Z,22.6
2019-03-29T01:06:57.886Z,23.200001
2019-03-29T01:07:11.483Z,23.9
2019-03-29T01:07:24.062Z,23.5
2019-03-29T01:07:37.643Z,23.700001
2019-03-29T01:07:50.227Z,24
2019-03-29T01:08:11.726Z,24.6
2019-03-29T01:08:24.338Z,24.1
2019-03-29T01:08:37.303Z,23.1
2019-03-29T01:08:50.531Z,23.5
2019-03-29T01:09:03.145Z,23.799999
2019-03-29T01:09:15.778Z,23.9
2019-03-29T01:09:28.365Z,24.1
2019-03-29T01:09:41.941Z,25
2019-03-29T01:09:54.528Z,24.299999
2019-03-29T01:10:08.114Z,23.200001
2019-03-29T01:10:20.718Z,23.1
2019-03-29T01:10:35.290Z,23.4
2019-03-29T01:10:48.179Z,23.9
2019-03-29T01:11:01.352Z,24.200001
2019-03-29T01:11:14.257Z,24
2019-03-29T01:11:26.532Z,24.1
2019-03-29T01:11:39.101Z,23.700001
2019-03-29T01:11:51.685Z,23.700001
2019-03-29T01:12:04.277Z,23.799999
2019-03-29T01:12:16.871Z,24.1
2019-03-29T01:12:29.475Z,24.200001
2019-03-29T01:12:42.072Z,24.299999
2019-03-29T01:12:54.669Z,23.799999
2019-03-29T01:13:08.276Z,24.1
2019-03-29T01:13:20.910Z,24.4
2019-03-29T01:13:33.470Z,24.4
2019-03-29T01:13:46.131Z,23.700001
2019-03-29T01:13:58.720Z,23.700001
2019-03-29T01:14:11.306Z,23.6
2019-03-29T01:14:23.906Z,24
2019-03-29T01:14:36.487Z,23.4
2019-03-29T01:14:49.078Z,23.6
2019-03-29T01:15:02.677Z,24.799999
2019-03-29T01:15:15.298Z,25.299999
2019-03-29T01:15:28.871Z,25.1
2019-03-29T01:15:42.477Z,25.6
2019-03-29T01:15:55.066Z,25
2019-03-29T01:16:07.667Z,23.9
2019-03-29T01:16:20.827Z,23.4
2019-03-29T01:16:35.383Z,25.1
2019-03-29T01:16:47.970Z,25.6
2019-03-29T01:17:01.552Z,24.700001
2019-03-29T01:17:14.140Z,24.1
2019-03-29T01:17:27.720Z,24.700001
2019-03-29T01:17:40.312Z,24.299999
2019-03-29T01:17:52.921Z,24.5
2019-03-29T01:18:05.495Z,24.200001
2019-03-29T01:18:19.671Z,24.4
2019-03-29T01:18:32.276Z,24.4
2019-03-29T01:18:45.858Z,24.6
2019-03-29T01:18:59.451Z,24.9
2019-03-29T01:19:12.041Z,24.1
2019-03-29T01:19:25.952Z,24
2019-03-29T01:19:38.522Z,23.799999
2019-03-29T01:19:51.125Z,23.799999
2019-03-29T01:20:03.708Z,24.4
2019-03-29T01:20:16.294Z,24.4
2019-03-29T01:20:28.859Z,24.700001
2019-03-29T01:20:41.446Z,25.5
2019-03-29T01:20:54.037Z,25.1
2019-03-29T01:21:06.641Z,25.1
2019-03-29T01:21:19.244Z,24.6
2019-03-29T01:21:31.825Z,24.5
2019-03-29T01:21:45.397Z,26.1
2019-03-29T01:21:57.979Z,26.299999
2019-03-29T01:22:10.549Z,24.6
2019-03-29T01:22:23.176Z,24.799999
2019-03-29T01:22:35.807Z,24.700001
2019-03-29T01:22:49.289Z,24.700001
2019-03-29T01:23:04.209Z,25.1
2019-03-29T01:23:17.693Z,25
2019-03-29T01:23:31.266Z,25.799999
2019-03-29T01:23:43.870Z,25.6
2019-03-29T01:23:57.466Z,26.200001
2019-03-29T01:24:10.703Z,25.299999
2019-03-29T01:24:24.324Z,24.700001
2019-03-29T01:24:36.915Z,25.9
2019-03-29T01:24:49.531Z,26.200001
2019-03-29T01:25:02.125Z,25.700001
2019-03-29T01:25:15.718Z,25
2019-03-29T01:25:28.328Z,24.200001
2019-03-29T01:25:42.755Z,24.9
2019-03-29T01:25:55.370Z,25.1
2019-03-29T01:26:09.703Z,25.299999
2019-03-29T01:26:22.293Z,25.799999
2019-03-29T01:26:34.897Z,26.4
2019-03-29T01:26:47.486Z,25.700001
2019-03-29T01:27:00.093Z,25.1
2019-03-29T01:27:12.664Z,25.299999
2019-03-29T01:27:27.159Z,26.799999
2019-03-29T01:27:39.760Z,26.5
2019-03-29T01:27:52.349Z,25.4
2019-03-29T01:28:05.910Z,26
2019-03-29T01:28:19.496Z,25.5
2019-03-29T01:28:32.088Z,25.9
2019-03-29T01:28:44.687Z,27.200001
2019-03-29T01:28:57.272Z,25.799999
2019-03-29T01:29:10.838Z,25.799999
2019-03-29T01:29:24.355Z,25.6
2019-03-29T01:29:36.958Z,26.200001
2019-03-29T01:29:50.612Z,26.200001
2019-03-29T01:30:03.185Z,26.5
2019-03-29T01:30:15.781Z,26.1
2019-03-29T01:30:29.384Z,26.299999
2019-03-29T01:30:41.989Z,27.5
2019-03-29T01:30:55.588Z,28
2019-03-29T01:31:08.184Z,26.799999
2019-03-29T01:31:21.767Z,26.9
2019-03-29T01:31:34.363Z,26.299999
2019-03-29T01:31:46.961Z,27.200001
2019-03-29T01:31:59.550Z,27.1
2019-03-29T01:32:12.140Z,26.4
2019-03-29T01:32:24.738Z,25.5
2019-03-29T01:32:38.309Z,26.9
2019-03-29T01:32:50.919Z,27.9
2019-03-29T01:33:05.534Z,27
2019-03-29T01:33:18.155Z,26.9
2019-03-29T01:33:31.752Z,26.700001
2019-03-29T01:33:44.335Z,26.700001
2019-03-29T01:33:56.942Z,26.5
2019-03-29T01:34:09.542Z,26.5
2019-03-29T01:34:22.139Z,26.5
2019-03-29T01:34:35.744Z,27.700001
2019-03-29T01:34:49.340Z,28.9
2019-03-29T01:35:01.927Z,28.9
2019-03-29T01:35:15.515Z,28.299999
2019-03-29T01:35:28.088Z,27.4
2019-03-29T01:35:41.665Z,27.5
2019-03-29T01:35:54.294Z,26.799999
2019-03-29T01:36:07.914Z,26.1
2019-03-29T01:36:20.515Z,26.9
2019-03-29T01:36:33.116Z,27.299999
2019-03-29T01:36:45.720Z,27.200001
2019-03-29T01:36:59.312Z,27.799999
2019-03-29T01:37:11.924Z,27.4
2019-03-29T01:37:25.500Z,26.700001
2019-03-29T01:37:38.089Z,26.200001
2019-03-29T01:37:51.656Z,26.5
2019-03-29T01:38:04.245Z,26.5
2019-03-29T01:38:24.789Z,27.200001
2019-03-29T01:38:38.328Z,27.4
2019-03-29T01:38:51.913Z,27.1
2019-03-29T01:39:04.500Z,27
2019-03-29T01:39:18.070Z,26.5
2019-03-29T01:39:30.666Z,26.700001
2019-03-29T01:39:43.288Z,26.9
2019-03-29T01:39:56.412Z,27.700001
2019-03-29T01:40:10.975Z,27.9
2019-03-29T01:40:23.557Z,27.299999
2019-03-29T01:40:37.149Z,26.9
2019-03-29T01:40:49.760Z,28.200001
2019-03-29T01:41:04.322Z,27.6
2019-03-29T01:41:16.915Z,26.200001
2019-03-29T01:41:30.496Z,26.9
2019-03-29T01:41:43.082Z,27.6
2019-03-29T01:41:55.654Z,27.700001
2019-03-29T01:42:08.250Z,28
2019-03-29T01:42:21.850Z,27.200001
2019-03-29T01:42:34.455Z,27.4
2019-03-29T01:42:48.033Z,27.1
2019-03-29T01:43:00.606Z,27.5
2019-03-29T01:43:14.181Z,28.5
2019-03-29T01:43:26.756Z,28.5
2019-03-29T01:43:40.355Z,28.4
2019-03-29T01:43:52.947Z,28.1
2019-03-29T01:44:05.564Z,28.4
2019-03-29T01:44:19.130Z,28.9
2019-03-29T01:44:32.742Z,27.799999
2019-03-29T01:44:45.342Z,28
2019-03-29T01:44:57.953Z,29.299999
2019-03-29T01:45:10.562Z,29.299999
2019-03-29T01:45:24.159Z,29.4
2019-03-29T01:45:36.743Z,28.700001
2019-03-29T01:45:50.305Z,29.200001
2019-03-29T01:46:03.893Z,29.799999
2019-03-29T01:46:17.464Z,29.700001
2019-03-29T01:46:30.043Z,29.9
2019-03-29T01:46:43.607Z,29.4
2019-03-29T01:46:56.202Z,29.200001
2019-03-29T01:47:08.772Z,30.1
2019-03-29T01:47:21.370Z,29.9
2019-03-29T01:47:33.949Z,29.6
2019-03-29T01:47:46.555Z,29.1
2019-03-29T01:48:00.130Z,28.9
2019-03-29T01:48:12.756Z,29
2019-03-29T01:48:26.327Z,29.6
2019-03-29T01:48:38.927Z,29.4
2019-03-29T01:48:51.517Z,29.5
2019-03-29T01:49:04.111Z,29.700001
2019-03-29T01:49:16.718Z,30.299999
2019-03-29T01:49:29.348Z,29.6
2019-03-29T01:49:42.937Z,28.6
2019-03-29T01:49:55.516Z,28.4
2019-03-29T01:50:10.570Z,28.700001
2019-03-29T01:50:23.156Z,28.9
2019-03-29T01:50:36.747Z,28.9
2019-03-29T01:50:49.321Z,29.6
2019-03-29T01:51:02.905Z,30.1
2019-03-29T01:51:16.521Z,29.9
2019-03-29T01:51:30.100Z,29.200001
2019-03-29T01:51:42.672Z,31.200001
2019-03-29T01:51:56.254Z,31.1
2019-03-29T01:52:08.857Z,28.799999
2019-03-29T01:52:23.194Z,27.5
2019-03-29T01:52:38.583Z,29.4
2019-03-29T01:52:52.158Z,32
2019-03-29T01:53:04.758Z,30.299999
2019-03-29T01:53:18.332Z,30.6
2019-03-29T01:53:30.928Z,31
2019-03-29T01:53:44.483Z,30.1
2019-03-29T01:53:57.085Z,29.6
2019-03-29T01:54:10.699Z,29.5
2019-03-29T01:54:23.281Z,30.1
2019-03-29T01:54:35.877Z,29.799999
2019-03-29T01:54:48.493Z,30.200001
2019-03-29T01:55:01.084Z,30.1
2019-03-29T01:55:13.685Z,30
2019-03-29T01:55:27.314Z,29.9
2019-03-29T01:55:39.900Z,30.4
2019-03-29T01:55:52.524Z,30
2019-03-29T01:56:05.964Z,31
2019-03-29T01:56:18.534Z,31.1
2019-03-29T01:56:32.115Z,31.5
2019-03-29T01:56:44.711Z,32.200001
2019-03-29T01:56:57.309Z,31
2019-03-29T01:57:09.890Z,31.1
2019-03-29T01:57:22.485Z,31
2019-03-29T01:57:36.086Z,30.9
2019-03-29T01:57:48.693Z,29.799999
2019-03-29T01:58:02.296Z,29.1
2019-03-29T01:58:14.935Z,29.299999
2019-03-29T01:58:27.525Z,30
2019-03-29T01:58:40.670Z,29.9
2019-03-29T01:58:54.286Z,29.700001
2019-03-29T01:59:06.846Z,29.200001
2019-03-29T01:59:20.430Z,29
2019-03-29T01:59:34.021Z,29.5
2019-03-29T01:59:48.337Z,31.4
2019-03-29T02:00:01.477Z,32.299999
2019-03-29T02:00:15.084Z,31.1
2019-03-29T02:00:28.703Z,30.299999
2019-03-29T02:00:42.279Z,31.1
2019-03-29T02:00:54.862Z,30.200001
2019-03-29T02:01:08.485Z,29.200001
2019-03-29T02:01:21.681Z,29.299999
2019-03-29T02:01:34.278Z,30.799999
2019-03-29T02:01:47.847Z,31
2019-03-29T02:02:01.414Z,31
2019-03-29T02:02:14.584Z,31.1
2019-03-29T02:02:28.179Z,30.299999
2019-03-29T02:02:40.758Z,30.5
2019-03-29T02:02:54.364Z,30.799999
2019-03-29T02:03:06.972Z,32.200001
2019-03-29T02:03:21.284Z,31.299999
2019-03-29T02:03:34.421Z,31.799999
2019-03-29T02:03:47.014Z,31.9
2019-03-29T02:03:59.598Z,30.9
2019-03-29T02:04:14.166Z,30.9
2019-03-29T02:04:26.726Z,30.700001
2019-03-29T02:04:40.320Z,30.9
2019-03-29T02:04:53.882Z,31.5
2019-03-29T02:05:07.445Z,31.799999
2019-03-29T02:05:20.034Z,30.9
2019-03-29T02:05:33.652Z,31.299999
2019-03-29T02:05:46.250Z,31.1
2019-03-29T02:05:58.845Z,32.200001
2019-03-29T02:06:13.453Z,31.1
2019-03-29T02:06:26.040Z,30
2019-03-29T02:06:38.620Z,30.299999
2019-03-29T02:06:53.180Z,30.6
2019-03-29T02:07:05.766Z,29.799999
2019-03-29T02:07:18.340Z,30.6
2019-03-29T02:07:30.943Z,31.4
2019-03-29T02:07:45.339Z,31.200001
2019-03-29T02:07:58.918Z,29.9
2019-03-29T02:08:12.523Z,30.5
2019-03-29T02:08:35.402Z,30.6
2019-03-29T02:08:45.509Z,31.4
2019-03-29T02:08:58.958Z,30.6
2019-03-29T02:09:12.572Z,29.700001
2019-03-29T02:09:25.173Z,29.4
2019-03-29T02:09:38.746Z,30
2019-03-29T02:09:51.332Z,30.5
2019-03-29T02:10:03.930Z,30.9
2019-03-29T02:10:16.515Z,30.5
2019-03-29T02:10:29.111Z,30.700001
2019-03-29T02:10:41.739Z,29.700001
2019-03-29T02:10:55.321Z,29.4
2019-03-29T02:11:07.988Z,29.200001
2019-03-29T02:11:21.594Z,28.6
2019-03-29T02:11:34.172Z,29.299999
2019-03-29T02:11:47.768Z,30
2019-03-29T02:12:00.354Z,30.299999
2019-03-29T02:12:12.953Z,29.6
2019-03-29T02:12:25.528Z,30.700001
2019-03-29T02:12:39.127Z,31.1
2019-03-29T02:12:51.717Z,30.4
2019-03-29T02:13:05.317Z,29.700001
2019-03-29T02:13:17.897Z,30.299999
2019-03-29T02:13:31.486Z,30.200001
2019-03-29T02:13:44.093Z,30.700001
2019-03-29T02:13:56.702Z,29.6
2019-03-29T02:14:09.286Z,29.299999
2019-03-29T02:14:21.882Z,29.9
2019-03-29T02:14:34.469Z,29.5
2019-03-29T02:14:48.065Z,28.9
2019-03-29T02:15:00.645Z,28.9
2019-03-29T02:15:14.230Z,29.5
2019-03-29T02:15:26.832Z,29.799999
2019-03-29T02:15:39.452Z,30.1
2019-03-29T02:15:53.002Z,30.1
2019-03-29T02:16:05.627Z,30
2019-03-29T02:16:18.204Z,28.9
2019-03-29T02:16:31.781Z,28.700001
2019-03-29T02:16:44.380Z,28.9
2019-03-29T02:16:57.983Z,29.4
2019-03-29T02:17:10.524Z,28.799999
2019-03-29T02:17:24.110Z,30.200001
2019-03-29T02:17:36.697Z,29.799999
2019-03-29T02:17:51.289Z,29.5
2019-03-29T02:18:03.872Z,29.1
2019-03-29T02:18:18.420Z,27.799999
2019-03-29T02:18:31.960Z,30
2019-03-29T02:18:45.564Z,30.799999
2019-03-29T02:18:58.149Z,30.5
2019-03-29T02:19:10.749Z,29.799999
2019-03-29T02:19:23.351Z,28.1
2019-03-29T02:19:36.584Z,28.5
2019-03-29T02:19:49.200Z,28.799999
2019-03-29T02:20:01.799Z,28.799999
2019-03-29T02:20:14.391Z,27.6
2019-03-29T02:20:27.994Z,28.4
2019-03-29T02:20:40.604Z,29.6
2019-03-29T02:20:54.217Z,28.6
2019-03-29T02:21:06.817Z,28.299999
2019-03-29T02:21:20.386Z,28.299999
2019-03-29T02:21:32.975Z,27.4
2019-03-29T02:21:45.570Z,28.299999
2019-03-29T02:21:58.170Z,29.1
2019-03-29T02:22:10.766Z,29.4
2019-03-29T02:22:25.352Z,30.200001
2019-03-29T02:22:38.918Z,29.9
2019-03-29T02:22:51.529Z,29.1
2019-03-29T02:23:05.101Z,29.5
2019-03-29T02:23:17.695Z,28.9
2019-03-29T02:23:31.306Z,28.1
2019-03-29T02:23:43.876Z,27.700001
2019-03-29T02:23:57.068Z,28.200001
2019-03-29T02:24:09.083Z,29.4
2019-03-29T02:24:21.662Z,29
2019-03-29T02:24:35.255Z,27.299999
2019-03-29T02:24:47.849Z,27.9
2019-03-29T02:25:02.439Z,29.6
2019-03-29T02:25:15.317Z,29.5
2019-03-29T02:25:28.593Z,28.700001
2019-03-29T02:25:41.189Z,29.4
2019-03-29T02:25:53.812Z,29.200001
2019-03-29T02:26:06.408Z,28.4
2019-03-29T02:26:20.004Z,28.700001
2019-03-29T02:26:32.604Z,29.6
2019-03-29T02:26:45.913Z,28.6
2019-03-29T02:26:58.513Z,29.4
2019-03-29T02:27:12.085Z,29.5
2019-03-29T02:27:24.668Z,28.200001
2019-03-29T02:27:39.215Z,27.6
2019-03-29T02:27:53.704Z,28
2019-03-29T02:28:06.281Z,27.700001
2019-03-29T02:28:20.864Z,27.9
2019-03-29T02:28:33.442Z,27.6
2019-03-29T02:28:48.008Z,27.4
2019-03-29T02:29:00.603Z,27.6
2019-03-29T02:29:14.199Z,28.5
2019-03-29T02:29:26.833Z,28.5
2019-03-29T02:29:39.381Z,29.5
2019-03-29T02:29:51.991Z,29.6
2019-03-29T02:30:05.558Z,28.6
2019-03-29T02:30:18.130Z,28.799999
2019-03-29T02:30:32.226Z,27.5
2019-03-29T02:30:44.307Z,26.700001
2019-03-29T02:30:59.634Z,27.1
2019-03-29T02:31:12.321Z,28.1
2019-03-29T02:31:28.976Z,28.1
2019-03-29T02:31:44.101Z,28.6
2019-03-29T02:31:57.701Z,28.5
2019-03-29T02:32:10.269Z,29.4
2019-03-29T02:32:24.797Z,29.9
2019-03-29T02:32:36.457Z,28.700001
2019-03-29T02:32:49.857Z,27.5
2019-03-29T02:33:04.353Z,27.6
2019-03-29T02:33:17.717Z,27.5
2019-03-29T02:33:32.279Z,28
2019-03-29T02:33:44.834Z,28.5
2019-03-29T02:33:57.487Z,29
2019-03-29T02:34:10.025Z,28.700001
2019-03-29T02:34:23.602Z,29.1
2019-03-29T02:34:37.081Z,28.200001
2019-03-29T02:34:50.667Z,28.4
2019-03-29T02:35:04.094Z,28.5
2019-03-29T02:35:17.678Z,27.799999
2019-03-29T02:35:31.266Z,28.6
2019-03-29T02:35:45.592Z,29.299999
2019-03-29T02:35:58.177Z,28.1
2019-03-29T02:36:12.756Z,27.1
2019-03-29T02:36:25.379Z,28.799999
2019-03-29T02:36:39.954Z,29
2019-03-29T02:36:52.543Z,28.200001
2019-03-29T02:37:07.106Z,27.299999
2019-03-29T02:37:19.697Z,27.799999
2019-03-29T02:37:33.263Z,27.5
2019-03-29T02:37:46.844Z,27.299999
2019-03-29T02:38:00.422Z,28.6
2019-03-29T02:38:13.605Z,29.200001
2019-03-29T02:38:27.162Z,28.200001
2019-03-29T02:38:54.644Z,27.4
2019-03-29T02:39:03.211Z,27.9
2019-03-29T02:39:15.789Z,28.4
2019-03-29T02:39:30.366Z,28.799999
2019-03-29T02:39:42.954Z,28.1
2019-03-29T02:39:57.518Z,26.9
2019-03-29T02:40:10.097Z,27.5
2019-03-29T02:40:23.683Z,28
2019-03-29T02:40:36.280Z,28.299999
2019-03-29T02:40:50.849Z,28.299999
2019-03-29T02:41:03.485Z,28.299999
2019-03-29T02:41:16.119Z,28.200001
2019-03-29T02:41:30.417Z,30.4
2019-03-29T02:41:44.009Z,30.299999
2019-03-29T02:41:57.627Z,29
2019-03-29T02:42:10.213Z,28.299999
2019-03-29T02:42:22.787Z,27.6
2019-03-29T02:42:35.364Z,27.799999
2019-03-29T02:42:48.965Z,29.4
2019-03-29T02:43:02.522Z,29.200001
2019-03-29T02:43:16.090Z,28.5
2019-03-29T02:43:28.684Z,28.6
2019-03-29T02:43:42.313Z,27.9
2019-03-29T02:43:54.898Z,28.5
2019-03-29T02:44:08.482Z,29.4
2019-03-29T02:44:21.063Z,29.4
2019-03-29T02:44:34.948Z,28.799999
2019-03-29T02:44:47.220Z,28.700001
2019-03-29T02:44:59.814Z,28.200001
2019-03-29T02:45:13.398Z,28.4
2019-03-29T02:45:25.967Z,27.1